Time;durP1;ratioP1;P1;durP2;ratioP2;P2;SDS_P1;SDS_P2;PMS_P1;PMS_P2;Temp;Humidity;BMP_temperature;BMP_pressure;BME280_temperature;BME280_humidity;BME280_pressure;Samples;Min_cycle;Max_cycle;Signal;HPM_P1;HPM_P2
2023/01/07 00:01:08;;;;;;;0.50;0.10;;;11.40;99.90;;;;;;4804418;29;20852;-68
2023/01/07 00:03:37;;;;;;;0.50;0.10;;;11.30;99.90;;;;;;4810636;29;20453;-70
2023/01/07 00:06:07;;;;;;;0.50;0.10;;;11.30;99.90;;;;;;4822726;29;20473;-69
2023/01/07 00:08:38;;;;;;;0.50;0.10;;;11.30;99.90;;;;;;4829541;29;20960;-68
2023/01/07 00:11:08;;;;;;;0.50;0.10;;;11.30;99.90;;;;;;4841859;29;20448;-71
2023/01/07 00:13:36;;;;;;;0.50;0.10;;;11.30;99.90;;;;;;4832030;29;20457;-68
2023/01/07 00:16:09;;;;;;;0.50;0.10;;;10.60;99.90;;;;;;4812702;29;20504;-68
2023/01/07 00:18:37;;;;;;;0.50;0.10;;;11.40;99.90;;;;;;4808300;29;20462;-70
2023/01/07 00:21:07;;;;;;;0.50;0.10;;;11.40;99.90;;;;;;4807758;29;20490;-67
2023/01/07 00:23:36;;;;;;;0.50;0.10;;;11.30;99.90;;;;;;4815590;29;20850;-71
2023/01/07 00:26:06;;;;;;;0.50;0.10;;;11.30;99.90;;;;;;4825884;29;20469;-68
2023/01/07 00:28:34;;;;;;;0.50;0.10;;;11.40;99.90;;;;;;4826204;29;20453;-69
2023/01/07 00:31:04;;;;;;;0.50;0.10;;;11.30;99.90;;;;;;4825647;29;20449;-68
2023/01/07 00:33:34;;;;;;;0.50;0.10;;;11.30;99.90;;;;;;4825165;29;21029;-67
2023/01/07 00:36:04;;;;;;;0.50;0.10;;;11.30;99.90;;;;;;4825660;29;20477;-68
2023/01/07 00:38:31;;;;;;;0.50;0.10;;;11.30;99.90;;;;;;4825261;29;20858;-70
2023/01/07 00:41:01;;;;;;;0.50;0.10;;;11.30;99.90;;;;;;4825232;29;20485;-67
2023/01/07 00:43:28;;;;;;;0.50;0.10;;;11.30;99.90;;;;;;4825104;29;20464;-68
2023/01/07 00:45:56;;;;;;;0.50;0.20;;;11.30;99.90;;;;;;4825452;29;20484;-68
2023/01/07 00:48:24;;;;;;;0.50;0.10;;;11.30;99.90;;;;;;4825482;29;20458;-69
2023/01/07 00:50:54;;;;;;;0.50;0.10;;;11.30;99.90;;;;;;4825348;29;20893;-68
2023/01/07 00:53:22;;;;;;;0.50;0.10;;;11.30;99.90;;;;;;4817034;29;20807;-72
2023/01/07 00:55:51;;;;;;;0.50;0.10;;;11.30;99.90;;;;;;4807122;29;20454;-69
2023/01/07 00:58:21;;;;;;;0.67;0.30;;;11.30;99.90;;;;;;4807263;29;20458;-68
2023/01/07 05:00:32;;;;;;;1.60;1.50;;;11.20;99.90;;;;;;5783595;24;21962;-77
2023/01/07 05:03:00;;;;;;;0.50;0.10;;;11.20;99.90;;;;;;4824911;29;20496;-76
2023/01/07 05:05:28;;;;;;;0.50;0.10;;;11.20;99.90;;;;;;4825513;29;20475;-77
2023/01/07 05:07:56;;;;;;;0.50;0.10;;;11.20;99.90;;;;;;4810572;29;20461;-77
2023/01/07 05:10:23;;;;;;;0.50;0.10;;;11.20;99.90;;;;;;4850563;29;20456;-77
2023/01/07 05:12:51;;;;;;;0.50;0.10;;;11.20;99.90;;;;;;4827770;29;20493;-77
2023/01/07 05:15:19;;;;;;;0.50;0.10;;;11.20;99.90;;;;;;4817943;29;20438;-77
2023/01/07 05:17:48;;;;;;;0.50;0.10;;;11.20;99.90;;;;;;4813451;29;20984;-77
2023/01/07 05:20:16;;;;;;;0.50;0.10;;;11.20;99.90;;;;;;4809814;29;20795;-77
2023/01/07 05:22:45;;;;;;;0.50;0.10;;;11.20;99.90;;;;;;4807369;29;21053;-77
2023/01/07 05:25:13;;;;;;;0.50;0.10;;;11.20;99.90;;;;;;4807603;29;20461;-78
2023/01/07 05:27:40;;;;;;;0.50;0.10;;;11.20;99.90;;;;;;4807633;29;20523;-79
2023/01/07 05:30:09;;;;;;;0.50;0.10;;;11.20;99.90;;;;;;4807097;29;20454;-77
2023/01/07 05:32:37;;;;;;;0.50;0.10;;;11.30;99.90;;;;;;4811381;29;20882;-76
2023/01/07 05:35:07;;;;;;;0.50;0.10;;;11.20;99.90;;;;;;4807514;29;20557;-76
2023/01/07 05:37:35;;;;;;;0.50;0.10;;;11.20;99.90;;;;;;4822512;29;20794;-77
2023/01/07 05:40:03;;;;;;;0.50;0.10;;;11.20;99.90;;;;;;4807907;29;20470;-77
2023/01/07 05:42:31;;;;;;;0.50;0.10;;;11.20;99.90;;;;;;4808416;29;20494;-77
2023/01/07 05:44:59;;;;;;;0.50;0.10;;;11.20;99.90;;;;;;4808573;29;20451;-76
2023/01/07 05:47:27;;;;;;;0.50;0.20;;;11.20;99.90;;;;;;4808460;29;20462;-76
2023/01/07 05:49:55;;;;;;;0.50;0.10;;;11.20;99.90;;;;;;4807873;29;20454;-77
2023/01/07 05:52:24;;;;;;;0.50;0.10;;;11.20;99.90;;;;;;4808612;29;20466;-77
2023/01/07 05:54:51;;;;;;;0.50;0.10;;;11.20;99.90;;;;;;4811227;29;20608;-76
2023/01/07 05:57:19;;;;;;;0.50;0.10;;;11.20;99.90;;;;;;4813412;29;20454;-78
2023/01/07 05:59:47;;;;;;;0.50;0.10;;;11.20;99.90;;;;;;4811297;29;20455;-75
2023/01/07 06:02:15;;;;;;;0.50;0.10;;;11.20;99.90;;;;;;4816720;29;20493;-77
2023/01/07 06:04:43;;;;;;;0.50;0.10;;;11.20;99.90;;;;;;4814129;29;20461;-77
2023/01/07 06:07:12;;;;;;;0.50;0.10;;;11.20;99.90;;;;;;4822212;29;20455;-76
2023/01/07 06:09:41;;;;;;;0.50;0.10;;;11.20;99.90;;;;;;4828258;29;20438;-76
2023/01/07 06:12:09;;;;;;;0.50;0.10;;;11.20;99.90;;;;;;4828365;29;20489;-77
2023/01/07 06:14:37;;;;;;;0.50;0.10;;;11.20;99.90;;;;;;4824305;29;20454;-76
2023/01/07 06:17:04;;;;;;;0.50;0.10;;;11.20;99.90;;;;;;4808313;29;20454;-77
2023/01/07 06:19:32;;;;;;;0.50;0.10;;;11.20;99.90;;;;;;4807291;29;20446;-76
2023/01/07 06:22:00;;;;;;;0.50;0.10;;;11.20;99.90;;;;;;4807876;29;20490;-77
2023/01/07 06:24:28;;;;;;;0.50;0.10;;;11.20;99.90;;;;;;4808946;29;21033;-77
2023/01/07 06:26:57;;;;;;;0.50;0.10;;;11.20;99.90;;;;;;4810882;29;20852;-77
2023/01/07 06:29:26;;;;;;;0.50;0.10;;;11.20;99.90;;;;;;4806164;29;20442;-77
2023/01/07 06:31:54;;;;;;;0.50;0.10;;;11.20;99.90;;;;;;4806697;29;20864;-77
2023/01/07 06:34:22;;;;;;;0.50;0.10;;;11.20;99.90;;;;;;4806900;29;20458;-76
2023/01/07 06:36:49;;;;;;;0.50;0.10;;;11.20;99.90;;;;;;4806776;29;20454;-78
2023/01/07 06:39:17;;;;;;;0.50;0.10;;;11.20;99.90;;;;;;4806481;29;20464;-76
2023/01/07 06:41:45;;;;;;;0.50;0.10;;;11.20;99.90;;;;;;4807814;29;20474;-76
2023/01/07 06:44:14;;;;;;;0.50;0.10;;;11.20;99.90;;;;;;4809683;29;20462;-77
2023/01/07 06:46:42;;;;;;;0.50;0.10;;;11.20;99.90;;;;;;4811577;29;20459;-76
2023/01/07 06:49:10;;;;;;;0.50;0.10;;;11.20;99.90;;;;;;4811598;29;21033;-76
2023/01/07 06:51:38;;;;;;;0.50;0.10;;;11.20;99.90;;;;;;4805765;29;21019;-76
2023/01/07 06:54:06;;;;;;;0.50;0.10;;;11.20;99.90;;;;;;4806646;29;20454;-77
2023/01/07 06:56:34;;;;;;;0.50;0.10;;;11.20;99.90;;;;;;4806327;29;20458;-76
2023/01/07 06:59:02;;;;;;;0.50;0.10;;;11.20;99.90;;;;;;4806052;29;20490;-77
2023/01/07 07:01:31;;;;;;;0.50;0.10;;;11.20;99.90;;;;;;4806724;29;20489;-76
2023/01/07 07:03:59;;;;;;;0.50;0.10;;;11.20;99.90;;;;;;4806169;29;20997;-77
2023/01/07 07:06:27;;;;;;;0.50;0.10;;;11.20;99.90;;;;;;4806685;29;20465;-77
2023/01/07 07:08:55;;;;;;;0.50;0.10;;;11.20;99.90;;;;;;4816158;29;20458;-76
2023/01/07 07:11:22;;;;;;;0.50;0.10;;;11.20;99.90;;;;;;4820684;29;20485;-76
2023/01/07 07:13:50;;;;;;;0.50;0.10;;;11.20;99.90;;;;;;4814570;29;20451;-76
2023/01/07 07:16:21;;;;;;;0.50;0.10;;;11.20;99.90;;;;;;4814115;29;20460;-77
2023/01/07 07:18:50;;;;;;;0.50;0.10;;;11.20;99.90;;;;;;4806945;29;20466;-77
2023/01/07 07:21:18;;;;;;;0.50;0.10;;;11.20;99.90;;;;;;4805532;29;20482;-77
2023/01/07 07:23:46;;;;;;;0.50;0.10;;;11.20;99.90;;;;;;4805257;29;20856;-76
2023/01/07 07:26:14;;;;;;;0.50;0.10;;;11.20;99.90;;;;;;4811082;29;20512;-77
2023/01/07 07:28:42;;;;;;;0.50;0.10;;;11.20;99.90;;;;;;4814199;29;20980;-75
2023/01/07 07:31:10;;;;;;;0.50;0.10;;;11.20;99.90;;;;;;4811124;29;20907;-73
2023/01/07 07:33:38;;;;;;;0.50;0.10;;;11.20;99.90;;;;;;4805274;29;20517;-73
2023/01/07 07:36:08;;;;;;;0.50;0.10;;;11.20;99.90;;;;;;4805470;29;20461;-75
2023/01/07 07:38:36;;;;;;;0.50;0.10;;;11.20;99.90;;;;;;4805986;29;20454;-73
2023/01/07 07:41:03;;;;;;;0.50;0.10;;;11.20;99.90;;;;;;4807112;29;20478;-73
2023/01/07 07:43:34;;;;;;;0.50;0.10;;;11.20;99.90;;;;;;4807964;29;20514;-72
2023/01/07 07:46:02;;;;;;;0.50;0.10;;;10.30;99.90;;;;;;4806395;29;20505;-74
2023/01/07 07:48:29;;;;;;;0.50;0.10;;;11.20;99.90;;;;;;4804683;29;20469;-72
2023/01/07 07:50:57;;;;;;;0.50;0.10;;;11.10;99.90;;;;;;4804746;29;20880;-72
2023/01/07 07:53:32;;;;;;;0.50;0.10;;;;;;;;;;4806277;29;20808;-75
2023/01/07 07:56:00;;;;;;;0.50;0.10;;;11.20;99.90;;;;;;4819435;29;20450;-74
2023/01/07 07:58:28;;;;;;;0.50;0.10;;;11.20;99.90;;;;;;4811335;29;20485;-73
2023/01/07 08:00:55;;;;;;;0.50;0.10;;;11.20;99.90;;;;;;4807204;29;20492;-74
2023/01/07 08:03:23;;;;;;;0.50;0.10;;;11.20;99.90;;;;;;4805194;29;21028;-75
2023/01/07 08:05:51;;;;;;;0.50;0.10;;;11.20;99.90;;;;;;4806620;29;20455;-75
2023/01/07 08:08:19;;;;;;;0.50;0.10;;;11.20;99.90;;;;;;4805344;29;20837;-73
2023/01/07 08:10:48;;;;;;;0.50;0.10;;;11.30;99.90;;;;;;4805065;29;20470;-73
2023/01/07 08:13:16;;;;;;;0.50;0.10;;;11.30;99.90;;;;;;4803240;29;20462;-74
2023/01/07 08:15:44;;;;;;;0.50;0.10;;;11.30;99.90;;;;;;4806128;29;20922;-75
2023/01/07 08:18:12;;;;;;;0.50;0.10;;;11.30;99.90;;;;;;4806816;29;20454;-74
2023/01/07 08:20:39;;;;;;;0.50;0.10;;;11.30;99.90;;;;;;4805806;29;20454;-74
2023/01/07 08:23:08;;;;;;;0.50;0.10;;;11.30;99.90;;;;;;4806025;29;20547;-73
2023/01/07 08:25:36;;;;;;;0.50;0.10;;;11.30;99.90;;;;;;4806115;29;20511;-74
2023/01/07 08:28:05;;;;;;;0.50;0.10;;;11.40;99.90;;;;;;4807292;29;21085;-75
2023/01/07 08:30:33;;;;;;;0.50;0.10;;;11.40;99.90;;;;;;4806261;29;20450;-74
2023/01/07 08:33:03;;;;;;;0.50;0.10;;;11.40;99.90;;;;;;4806131;29;20461;-75
2023/01/07 08:35:31;;;;;;;0.50;0.10;;;11.20;99.90;;;;;;4808113;29;20842;-74
2023/01/07 08:38:03;;;;;;;0.50;0.10;;;11.40;99.90;;;;;;4819020;29;20469;-74
2023/01/07 08:40:31;;;;;;;0.50;0.10;;;11.40;99.90;;;;;;4830157;29;20462;-74
2023/01/07 08:43:00;;;;;;;0.50;0.10;;;11.40;99.90;;;;;;4821066;29;20462;-73
2023/01/07 08:45:29;;;;;;;0.50;0.10;;;11.40;99.90;;;;;;4810896;29;20465;-74
2023/01/07 08:47:57;;;;;;;0.50;0.10;;;11.50;99.90;;;;;;4807840;29;20458;-74
2023/01/07 08:50:25;;;;;;;0.50;0.10;;;11.50;99.90;;;;;;4813951;29;20532;-74
2023/01/07 08:52:53;;;;;;;0.50;0.10;;;11.50;99.90;;;;;;4813603;29;20473;-70
2023/01/07 08:55:22;;;;;;;0.50;0.10;;;11.50;99.90;;;;;;4819549;29;20453;-72
2023/01/07 08:57:52;;;;;;;0.50;0.10;;;11.60;99.90;;;;;;4810119;29;20442;-71
2023/01/07 09:00:20;;;;;;;0.50;0.10;;;11.60;99.90;;;;;;4808208;29;20497;-72
2023/01/07 09:02:49;;;;;;;0.50;0.10;;;11.60;99.90;;;;;;4821303;29;20529;-71
2023/01/07 09:05:17;;;;;;;0.50;0.10;;;11.60;99.90;;;;;;4822844;29;20497;-71
2023/01/07 09:07:45;;;;;;;0.50;0.10;;;11.60;99.90;;;;;;4821250;29;20465;-72
2023/01/07 09:10:13;;;;;;;0.50;0.10;;;11.60;99.90;;;;;;4827434;29;20461;-70
2023/01/07 09:12:41;;;;;;;0.50;0.10;;;11.70;99.90;;;;;;4822292;29;20817;-71
2023/01/07 09:15:10;;;;;;;0.50;0.10;;;11.70;99.90;;;;;;4820347;29;20450;-75
2023/01/07 09:17:38;;;;;;;0.50;0.10;;;11.70;99.90;;;;;;4810169;29;20534;-70
2023/01/07 09:20:08;;;;;;;0.50;0.10;;;11.70;99.90;;;;;;4806539;29;20482;-71
2023/01/07 09:22:39;;;;;;;0.50;0.10;;;11.70;99.90;;;;;;4825933;29;20473;-72
2023/01/07 09:25:07;;;;;;;0.50;0.10;;;11.70;99.90;;;;;;4821258;29;20494;-72
2023/01/07 09:27:36;;;;;;;0.50;0.10;;;11.70;99.90;;;;;;4819279;29;20488;-72
2023/01/07 09:30:06;;;;;;;0.50;0.10;;;11.80;99.90;;;;;;4822390;29;20453;-72
2023/01/07 09:32:34;;;;;;;0.50;0.10;;;11.70;99.90;;;;;;4825586;29;20465;-71
2023/01/07 09:35:02;;;;;;;0.50;0.10;;;11.80;99.90;;;;;;4823664;29;20537;-71
2023/01/07 09:37:32;;;;;;;0.50;0.10;;;11.80;99.90;;;;;;4822778;29;20469;-72
2023/01/07 09:40:00;;;;;;;0.50;0.10;;;11.80;99.90;;;;;;4825079;29;20964;-71
2023/01/07 09:42:43;;;;;;;0.50;0.10;;;11.80;99.90;;;;;;4824693;29;20470;-72
2023/01/07 09:45:16;;;;;;;0.50;0.10;;;11.80;99.90;;;;;;4824541;29;20492;-72
2023/01/07 09:47:49;;;;;;;0.50;0.10;;;11.80;99.90;;;;;;4810129;29;20462;-73
2023/01/07 09:50:24;;;;;;;0.50;0.10;;;11.80;99.90;;;;;;4811389;29;20989;-73
2023/01/07 09:52:57;;;;;;;0.50;0.20;;;11.80;99.90;;;;;;4814047;29;20472;-72
2023/01/07 09:55:31;;;;;;;0.50;0.10;;;11.80;99.90;;;;;;4811242;29;20641;-72
2023/01/07 09:57:59;;;;;;;0.50;0.10;;;11.80;99.90;;;;;;4806994;29;20462;-71
2023/01/07 10:00:28;;;;;;;0.50;0.10;;;;;;;;;;4806930;29;20895;-71
2023/01/07 10:03:11;;;;;;;0.50;0.10;;;11.80;99.90;;;;;;4807769;29;20454;-72
2023/01/07 10:05:47;;;;;;;1.63;1.53;;;11.80;99.90;;;;;;4807037;29;20500;-72
2023/01/07 10:08:26;;;;;;;0.50;0.10;;;11.80;99.90;;;;;;4810768;29;20449;-71
2023/01/07 10:11:05;;;;;;;0.50;0.10;;;11.90;99.90;;;;;;4826183;29;20600;-71
2023/01/07 10:13:53;;;;;;;0.50;0.10;;;11.90;99.90;;;;;;4826471;29;20452;-72
2023/01/07 10:16:27;;;;;;;0.50;0.10;;;11.90;99.90;;;;;;4819719;29;20469;-71
2023/01/07 10:19:01;;;;;;;0.50;0.10;;;11.90;99.90;;;;;;4825942;29;20536;-71
2023/01/07 10:21:39;;;;;;;0.50;0.10;;;11.90;99.90;;;;;;4812216;29;20515;-72
2023/01/07 10:24:17;;;;;;;0.50;0.10;;;11.90;99.90;;;;;;4810615;29;20516;-71
2023/01/07 10:26:51;;;;;;;0.50;0.10;;;12.00;99.90;;;;;;4807323;29;20458;-72
2023/01/07 10:29:28;;;;;;;0.50;0.10;;;11.90;99.90;;;;;;4805941;29;20478;-71
2023/01/07 10:31:58;;;;;;;0.50;0.10;;;12.00;99.90;;;;;;4818598;29;20469;-70
2023/01/07 10:34:34;;;;;;;0.50;0.10;;;12.00;99.90;;;;;;4829072;29;20452;-72
2023/01/07 10:37:04;;;;;;;0.50;0.10;;;12.10;99.90;;;;;;4800860;29;20449;-72
2023/01/07 10:39:45;;;;;;;0.50;0.10;;;12.10;99.90;;;;;;4825196;29;20537;-72
2023/01/07 10:42:21;;;;;;;0.50;0.10;;;12.10;99.90;;;;;;4810697;29;20501;-71
2023/01/07 10:45:10;;;;;;;0.50;0.10;;;12.20;99.90;;;;;;4808225;29;20509;-71
2023/01/07 10:47:51;;;;;;;0.50;0.10;;;12.20;99.90;;;;;;4813026;29;20494;-72
2023/01/07 10:50:44;;;;;;;0.50;0.10;;;12.30;99.90;;;;;;4815323;29;20457;-71
2023/01/07 10:53:21;;;;;;;0.50;0.10;;;12.30;99.90;;;;;;4813025;29;20546;-72
2023/01/07 10:55:58;;;;;;;0.50;0.10;;;12.30;99.90;;;;;;4820978;29;20461;-71
2023/01/07 10:58:31;;;;;;;0.50;0.10;;;12.30;99.90;;;;;;4830706;29;20449;-72
2023/01/07 11:00:59;;;;;;;0.50;0.10;;;12.40;99.90;;;;;;4831350;29;20481;-72
2023/01/07 11:03:28;;;;;;;0.50;0.10;;;12.40;99.90;;;;;;4829975;29;20452;-72
2023/01/07 11:06:02;;;;;;;0.50;0.10;;;12.40;99.90;;;;;;4822271;29;20569;-72
2023/01/07 11:08:37;;;;;;;0.60;0.10;;;12.40;99.90;;;;;;4819111;29;20483;-72
2023/01/07 11:11:14;;;;;;;0.60;0.10;;;12.50;99.90;;;;;;4821092;29;20484;-73
2023/01/07 11:13:49;;;;;;;0.60;0.10;;;12.50;99.90;;;;;;4826198;29;20441;-72
2023/01/07 11:16:22;;;;;;;0.60;0.10;;;12.50;99.90;;;;;;4827136;29;20894;-72
2023/01/07 11:18:57;;;;;;;0.90;0.80;;;12.50;99.90;;;;;;4824195;29;20505;-71
2023/01/07 11:21:37;;;;;;;0.50;0.10;;;12.60;99.90;;;;;;4812188;29;20583;-75
2023/01/07 11:24:35;;;;;;;0.50;0.10;;;12.60;99.90;;;;;;4859125;24;20536;-72
2023/01/07 11:27:13;;;;;;;0.60;0.10;;;12.60;99.90;;;;;;4791145;29;20448;-70
2023/01/07 11:29:44;;;;;;;0.57;0.10;;;12.70;99.90;;;;;;4822613;29;20473;-70
2023/01/07 11:32:19;;;;;;;0.50;0.10;;;;;;;;;;4824998;29;20810;-71
2023/01/07 11:34:55;;;;;;;0.60;0.10;;;12.80;99.90;;;;;;4819854;29;20864;-70
2023/01/07 11:37:33;;;;;;;0.60;0.10;;;12.80;99.90;;;;;;4824661;29;20445;-70
2023/01/07 11:40:04;;;;;;;0.60;0.10;;;12.80;99.90;;;;;;4822394;29;20456;-70
2023/01/07 11:42:46;;;;;;;0.50;0.10;;;12.80;99.90;;;;;;4820488;29;20457;-71
2023/01/07 11:45:17;;;;;;;0.60;0.10;;;12.90;99.90;;;;;;4840491;29;20492;-70
2023/01/07 11:47:46;;;;;;;0.60;0.10;;;;;;;;;;4840574;29;20457;-70
2023/01/07 11:50:24;;;;;;;0.57;0.10;;;12.90;99.90;;;;;;4840584;29;20457;-69
2023/01/07 11:52:57;;;;;;;0.60;0.10;;;12.90;99.90;;;;;;4839000;29;20971;-70
2023/01/07 11:55:25;;;;;;;0.50;0.10;;;12.90;99.90;;;;;;4811664;29;20467;-71
2023/01/07 11:57:55;;;;;;;0.60;0.10;;;12.90;99.90;;;;;;4839909;29;20452;-70
2023/01/07 12:00:43;;;;;;;0.60;0.10;;;12.90;99.90;;;;;;4830352;29;20450;-69
2023/01/07 12:03:12;;;;;;;0.60;0.10;;;12.90;99.90;;;;;;4840666;29;20453;-69
2023/01/07 12:05:44;;;;;;;0.60;0.10;;;12.90;99.90;;;;;;4840702;29;21069;-72
2023/01/07 12:08:20;;;;;;;0.50;0.10;;;12.90;99.90;;;;;;4840221;29;20495;-70
2023/01/07 12:10:55;;;;;;;0.60;0.13;;;12.80;99.90;;;;;;4822711;29;20955;-71
2023/01/07 12:13:26;;;;;;;0.60;0.20;;;12.70;99.90;;;;;;4827078;29;20502;-71
2023/01/07 12:15:57;;;;;;;0.50;0.20;;;12.70;99.90;;;;;;4826127;29;20979;-70
2023/01/07 12:18:49;;;;;;;0.60;0.10;;;12.70;99.90;;;;;;4826733;29;20453;-72
2023/01/07 12:21:33;;;;;;;0.60;0.10;;;12.60;99.90;;;;;;4830443;29;20844;-68
2023/01/07 12:24:20;;;;;;;0.50;0.10;;;12.60;99.90;;;;;;4826140;29;20535;-71
2023/01/07 12:26:55;;;;;;;0.50;0.10;;;12.60;99.90;;;;;;4838625;29;20548;-70
2023/01/07 12:29:37;;;;;;;0.60;0.10;;;12.50;99.90;;;;;;4840038;29;20465;-70
2023/01/07 12:32:20;;;;;;;0.57;0.10;;;12.50;99.90;;;;;;4836470;29;20456;-71
2023/01/07 12:34:55;;;;;;;0.60;0.20;;;12.50;99.90;;;;;;4843176;29;20661;-71
2023/01/07 12:37:31;;;;;;;0.50;0.10;;;12.50;99.90;;;;;;4844170;29;20920;-70
2023/01/07 12:40:10;;;;;;;0.60;0.10;;;12.50;99.90;;;;;;4825612;29;20461;-70
2023/01/07 12:42:42;;;;;;;0.60;0.10;;;12.40;99.90;;;;;;4834284;29;20452;-71
2023/01/07 12:45:18;;;;;;;0.50;0.10;;;12.40;99.90;;;;;;4843886;29;20491;-71
2023/01/07 12:47:52;;;;;;;0.53;0.27;;;12.40;99.90;;;;;;4843921;29;20454;-72
2023/01/07 12:50:26;;;;;;;0.50;0.20;;;12.40;99.90;;;;;;4812067;29;20962;-70
2023/01/07 12:53:00;;;;;;;0.50;0.10;;;12.40;99.90;;;;;;4836384;29;20449;-70
2023/01/07 12:55:32;;;;;;;0.50;0.10;;;12.40;99.90;;;;;;4843907;29;20556;-72
2023/01/07 12:58:07;;;;;;;0.50;0.10;;;12.40;99.90;;;;;;4843586;29;20444;-72
2023/01/07 13:00:42;;;;;;;0.60;0.10;;;12.40;99.90;;;;;;4826372;29;20563;-70
2023/01/07 13:03:23;;;;;;;0.50;0.10;;;12.30;99.90;;;;;;4830358;29;20464;-71
2023/01/07 13:05:54;;;;;;;0.50;0.10;;;12.30;99.90;;;;;;4827504;29;20545;-71
2023/01/07 13:08:31;;;;;;;0.60;0.10;;;12.30;99.90;;;;;;4831955;29;20484;-71
2023/01/07 13:11:05;;;;;;;0.50;0.10;;;12.30;99.90;;;;;;4826472;29;20523;-71
2023/01/07 13:13:38;;;;;;;0.50;0.10;;;12.30;99.90;;;;;;4825562;29;20489;-71
2023/01/07 13:16:11;;;;;;;0.50;0.10;;;12.30;99.90;;;;;;4837860;29;20459;-71
2023/01/07 13:18:39;;;;;;;0.50;0.10;;;12.30;99.90;;;;;;4842401;29;20460;-72
2023/01/07 13:21:08;;;;;;;0.50;0.10;;;12.30;99.90;;;;;;4824571;29;21207;-71
2023/01/07 13:23:56;;;;;;;0.50;0.10;;;12.30;99.90;;;;;;4823644;29;20481;-72
2023/01/07 13:26:34;;;;;;;0.50;0.10;;;12.30;99.90;;;;;;4823330;29;20979;-72
2023/01/07 13:29:24;;;;;;;0.60;0.10;;;12.30;99.90;;;;;;4825559;29;20468;-70
2023/01/07 13:32:33;;;;;;;0.50;0.10;;;12.30;99.90;;;;;;4823606;29;20473;-70
2023/01/07 13:35:29;;;;;;;0.50;0.10;;;12.30;99.90;;;;;;4838809;29;20476;-70
2023/01/07 13:38:10;;;;;;;0.50;0.10;;;12.30;99.90;;;;;;4841790;29;20797;-70
2023/01/07 13:41:00;;;;;;;0.50;0.10;;;12.30;99.90;;;;;;4843242;29;20459;-71
2023/01/07 13:43:43;;;;;;;0.50;0.10;;;12.30;99.90;;;;;;4806749;29;20470;-70
2023/01/07 13:46:15;;;;;;;0.50;0.10;;;12.30;99.90;;;;;;4807253;29;20494;-70
2023/01/07 13:48:50;;;;;;;0.50;0.10;;;12.30;99.90;;;;;;4808657;29;20868;-70
2023/01/07 13:51:26;;;;;;;0.50;0.10;;;12.30;99.90;;;;;;4825116;29;20461;-70
2023/01/07 13:53:54;;;;;;;0.50;0.10;;;12.30;99.90;;;;;;4825101;29;20477;-71
2023/01/07 13:56:39;;;;;;;0.50;0.10;;;12.30;99.90;;;;;;4825295;29;20540;-72
2023/01/07 13:59:29;;;;;;;0.50;0.10;;;12.30;99.90;;;;;;4825031;29;20464;-70
2023/01/07 14:02:18;;;;;;;0.50;0.10;;;12.20;99.90;;;;;;4833523;29;20881;-71
2023/01/07 14:05:03;;;;;;;0.50;0.10;;;12.20;99.90;;;;;;4838201;29;20479;-73
2023/01/07 14:07:32;;;;;;;0.50;0.10;;;10.80;99.90;;;;;;4842928;29;20498;-71
2023/01/07 14:10:01;;;;;;;0.50;0.10;;;12.20;99.90;;;;;;4830896;29;20824;-70
2023/01/07 14:13:00;;;;;;;0.50;0.10;;;12.30;99.90;;;;;;4825108;29;20453;-71
2023/01/07 14:16:02;;;;;;;0.50;0.10;;;12.20;99.90;;;;;;4824638;29;21012;-73
2023/01/07 14:19:09;;;;;;;0.50;0.10;;;12.20;99.90;;;;;;4824494;29;20460;-73
2023/01/07 14:21:51;;;;;;;0.50;0.10;;;12.20;99.90;;;;;;4805861;29;20503;-72
2023/01/07 14:25:04;;;;;;;0.50;0.10;;;12.20;99.90;;;;;;4806047;29;20482;-71
2023/01/07 14:28:04;;;;;;;0.60;0.20;;;12.20;99.90;;;;;;4790410;29;20513;-71
2023/01/07 14:30:42;;;;;;;0.50;0.10;;;12.20;99.90;;;;;;4794224;29;20473;-71
2023/01/07 14:33:20;;;;;;;0.50;0.10;;;12.20;99.90;;;;;;4822769;29;20473;-75
2023/01/07 14:35:59;;;;;;;0.50;0.10;;;12.20;99.90;;;;;;4839714;29;20464;-70
2023/01/07 14:38:58;;;;;;;0.50;0.10;;;12.20;99.90;;;;;;4833440;29;20448;-71
2023/01/07 14:41:26;;;;;;;0.50;0.10;;;;;;;;;;4829479;29;20864;-71
2023/01/07 14:44:28;;;;;;;0.50;0.10;;;12.20;99.90;;;;;;4834183;29;20961;-71
2023/01/07 14:46:56;;;;;;;0.50;0.10;;;;;;;;;;4825261;29;20870;-72
2023/01/07 14:50:00;;;;;;;0.50;0.10;;;12.20;99.90;;;;;;4841741;29;20514;-71
2023/01/07 14:52:54;;;;;;;0.50;0.10;;;12.20;99.90;;;;;;4837613;29;20467;-71
2023/01/07 14:55:37;;;;;;;0.50;0.10;;;12.20;99.90;;;;;;4822209;29;20496;-71
2023/01/07 14:58:22;;;;;;;0.50;0.10;;;12.20;99.90;;;;;;4822932;29;20871;-71
2023/01/07 15:01:17;;;;;;;0.50;0.10;;;12.10;99.90;;;;;;4836846;29;21048;-68
2023/01/07 15:04:36;;;;;;;0.50;0.10;;;12.20;99.90;;;;;;4840739;29;20472;-71
2023/01/07 15:07:04;;;;;;;0.50;0.20;;;12.20;99.90;;;;;;4824637;29;20488;-71
2023/01/07 15:18:12;;;;;;;0.50;0.10;;;12.20;99.90;;;;;;4828631;29;20521;-71
2023/01/07 15:20:54;;;;;;;0.50;0.10;;;12.10;99.90;;;;;;4817349;29;20468;-69
2023/01/07 15:23:30;;;;;;;0.50;0.10;;;12.20;99.90;;;;;;4838990;29;20476;-70
2023/01/07 15:26:05;;;;;;;0.50;0.10;;;12.20;99.90;;;;;;4826658;29;20468;-68
2023/01/07 15:28:42;;;;;;;0.50;0.10;;;12.20;99.90;;;;;;4830559;29;20495;-70
2023/01/07 15:31:19;;;;;;;0.50;0.10;;;12.20;99.90;;;;;;4829657;29;20468;-70
2023/01/07 15:34:01;;;;;;;0.50;0.10;;;12.20;99.90;;;;;;4824004;29;20492;-69
2023/01/07 15:36:30;;;;;;;0.50;0.10;;;12.20;99.90;;;;;;4835106;29;20452;-69
2023/01/07 15:39:00;;;;;;;0.50;0.10;;;12.20;99.90;;;;;;4830908;29;21118;-71
2023/01/07 15:41:32;;;;;;;0.50;0.10;;;12.20;99.90;;;;;;4834531;29;20792;-70
2023/01/07 15:44:03;;;;;;;0.50;0.10;;;12.20;99.90;;;;;;4826936;29;20476;-70
2023/01/07 15:46:32;;;;;;;0.50;0.10;;;12.30;99.90;;;;;;4832831;29;20452;-70
2023/01/07 15:49:21;;;;;;;0.50;0.10;;;12.20;99.90;;;;;;4830406;29;20524;-70
2023/01/07 15:51:58;;;;;;;0.50;0.10;;;12.30;99.90;;;;;;4845955;29;20479;-70
2023/01/07 15:54:37;;;;;;;0.50;0.10;;;12.30;99.90;;;;;;4846300;29;20540;-71
2023/01/07 15:57:10;;;;;;;0.50;0.10;;;;;;;;;;4840687;29;20494;-71
2023/01/07 15:59:43;;;;;;;0.60;0.33;;;12.30;99.90;;;;;;4832771;29;20524;-71
2023/01/07 16:02:23;;;;;;;0.50;0.10;;;12.20;99.90;;;;;;4839180;29;20460;-71
2023/01/07 16:05:10;;;;;;;0.50;0.20;;;12.30;99.90;;;;;;4845861;29;20468;-71
2023/01/07 16:07:48;;;;;;;0.50;0.10;;;12.20;99.90;;;;;;4831104;29;20491;-69
2023/01/07 16:10:21;;;;;;;0.50;0.10;;;12.20;99.90;;;;;;4823101;29;20489;-70
2023/01/07 16:12:50;;;;;;;0.50;0.10;;;12.20;99.90;;;;;;4838095;29;20449;-70
2023/01/07 16:15:25;;;;;;;0.50;0.10;;;12.30;99.90;;;;;;4842467;29;20520;-71
2023/01/07 16:17:54;;;;;;;0.50;0.10;;;12.20;99.90;;;;;;4832298;29;20436;-69
2023/01/07 16:20:26;;;;;;;0.50;0.10;;;12.20;99.90;;;;;;4831776;29;20457;-70
2023/01/07 16:23:18;;;;;;;0.50;0.10;;;12.20;99.90;;;;;;4824309;29;20548;-70
2023/01/07 16:25:50;;;;;;;0.50;0.10;;;12.20;99.90;;;;;;4831894;29;20467;-70
2023/01/07 16:28:22;;;;;;;0.50;0.10;;;12.20;99.90;;;;;;4836340;29;20487;-70
2023/01/07 16:30:52;;;;;;;0.50;0.10;;;12.20;99.90;;;;;;4838079;29;20955;-70
2023/01/07 16:33:22;;;;;;;0.50;0.10;;;12.10;99.90;;;;;;4846218;29;20501;-70
2023/01/07 16:35:53;;;;;;;0.50;0.10;;;12.20;99.90;;;;;;4846101;29;20447;-72
2023/01/07 16:38:21;;;;;;;0.50;0.10;;;12.10;99.90;;;;;;4846187;29;20524;-70
2023/01/07 16:40:50;;;;;;;0.60;0.10;;;12.20;99.90;;;;;;4839147;29;20464;-72
2023/01/07 16:43:31;;;;;;;0.50;0.10;;;12.20;99.90;;;;;;4846123;29;20936;-70
2023/01/07 16:46:19;;;;;;;0.50;0.10;;;12.20;99.90;;;;;;4846483;29;20444;-70
2023/01/07 16:48:48;;;;;;;0.50;0.10;;;12.20;99.90;;;;;;4844742;29;20563;-70
2023/01/07 16:51:37;;;;;;;0.50;0.10;;;12.20;99.90;;;;;;4841943;29;20463;-70
2023/01/07 16:54:21;;;;;;;0.50;0.10;;;12.10;99.90;;;;;;4835092;29;20475;-70
2023/01/07 16:56:51;;;;;;;0.87;0.67;;;12.10;99.90;;;;;;4846343;29;20459;-70
2023/01/07 16:59:20;;;;;;;0.50;0.10;;;12.10;99.90;;;;;;4840268;29;20805;-70
2023/01/07 17:01:49;;;;;;;0.50;0.10;;;12.10;99.90;;;;;;4834628;29;20955;-70
2023/01/07 17:04:23;;;;;;;0.50;0.10;;;12.10;99.90;;;;;;4844926;29;20479;-70
2023/01/07 17:06:51;;;;;;;0.50;0.10;;;12.00;99.90;;;;;;4844492;29;20452;-72
2023/01/07 17:09:22;;;;;;;0.50;0.10;;;12.00;99.90;;;;;;4843152;29;20491;-71
2023/01/07 17:11:51;;;;;;;0.50;0.10;;;12.00;99.90;;;;;;4829006;29;20459;-71
2023/01/07 17:14:45;;;;;;;0.50;0.10;;;11.90;99.90;;;;;;4844252;29;20476;-71
2023/01/07 17:17:31;;;;;;;0.50;0.10;;;11.90;99.90;;;;;;4844288;29;20450;-71
2023/01/07 17:20:21;;;;;;;0.50;0.10;;;11.80;99.90;;;;;;4831129;29;20452;-70
2023/01/07 17:22:49;;;;;;;0.50;0.10;;;11.70;99.90;;;;;;4841687;29;20445;-69
2023/01/07 17:25:23;;;;;;;0.50;0.10;;;11.60;99.90;;;;;;4865227;23;20519;-72
2023/01/07 17:27:54;;;;;;;0.50;0.10;;;11.60;99.90;;;;;;4822365;29;20484;-73
2023/01/07 17:30:27;;;;;;;0.50;0.10;;;11.50;99.90;;;;;;4824937;29;20453;-75